sensor_id;sensor_type;location;lat;lon;timestamp;temperature;humidity
51305;HTU21D;37392;50.964;6.952;2022-07-10T00:03:44;14.37;82.62
51305;HTU21D;37392;50.964;6.952;2022-07-10T00:07:25;14.25;82.93
51305;HTU21D;37392;50.964;6.952;2022-07-10T00:10:31;14.11;83.02
51305;HTU21D;37392;50.964;6.952;2022-07-10T00:14:03;14.04;83.81
51305;HTU21D;37392;50.964;6.952;2022-07-10T00:17:12;14.04;84.22
51305;HTU21D;37392;50.964;6.952;2022-07-10T00:23:55;13.64;84.88
51305;HTU21D;37392;50.964;6.952;2022-07-10T00:26:49;13.51;85.87
51305;HTU21D;37392;50.964;6.952;2022-07-10T00:30:24;13.34;86.62
51305;HTU21D;37392;50.964;6.952;2022-07-10T00:33:06;13.32;87.48
51305;HTU21D;37392;50.964;6.952;2022-07-10T00:35:35;13.26;88.10
51305;HTU21D;37392;50.964;6.952;2022-07-10T00:38:01;13.33;88.86
51305;HTU21D;37392;50.964;6.952;2022-07-10T00:40:27;13.24;88.74
51305;HTU21D;37392;50.964;6.952;2022-07-10T00:42:52;13.22;89.23
51305;HTU21D;37392;50.964;6.952;2022-07-10T00:45:17;13.20;89.41
51305;HTU21D;37392;50.964;6.952;2022-07-10T00:47:43;13.17;89.51
51305;HTU21D;37392;50.964;6.952;2022-07-10T00:50:08;13.11;89.69
51305;HTU21D;37392;50.964;6.952;2022-07-10T00:52:35;13.12;90.19
51305;HTU21D;37392;50.964;6.952;2022-07-10T00:55:04;13.21;90.85
51305;HTU21D;37392;50.964;6.952;2022-07-10T00:57:30;13.23;90.23
51305;HTU21D;37392;50.964;6.952;2022-07-10T00:59:56;13.22;90.13
51305;HTU21D;37392;50.964;6.952;2022-07-10T01:02:23;13.18;90.61
51305;HTU21D;37392;50.964;6.952;2022-07-10T01:04:48;13.08;90.64
51305;HTU21D;37392;50.964;6.952;2022-07-10T01:07:14;13.05;91.21
51305;HTU21D;37392;50.964;6.952;2022-07-10T01:09:41;12.95;91.59
51305;HTU21D;37392;50.964;6.952;2022-07-10T01:12:07;12.94;92.21
51305;HTU21D;37392;50.964;6.952;2022-07-10T01:14:33;13.02;92.16
51305;HTU21D;37392;50.964;6.952;2022-07-10T01:17:00;12.95;91.72
51305;HTU21D;37392;50.964;6.952;2022-07-10T01:19:26;12.95;92.14
51305;HTU21D;37392;50.964;6.952;2022-07-10T01:21:52;13.00;92.24
51305;HTU21D;37392;50.964;6.952;2022-07-10T01:24:17;13.07;92.01
51305;HTU21D;37392;50.964;6.952;2022-07-10T01:26:43;13.04;91.76
51305;HTU21D;37392;50.964;6.952;2022-07-10T01:29:10;13.05;91.72
51305;HTU21D;37392;50.964;6.952;2022-07-10T01:31:36;12.93;92.21
51305;HTU21D;37392;50.964;6.952;2022-07-10T01:34:04;12.92;92.06
51305;HTU21D;37392;50.964;6.952;2022-07-10T01:36:31;12.81;92.05
51305;HTU21D;37392;50.964;6.952;2022-07-10T01:38:57;12.75;92.36
51305;HTU21D;37392;50.964;6.952;2022-07-10T01:41:23;12.71;92.68
51305;HTU21D;37392;50.964;6.952;2022-07-10T01:43:49;12.56;92.38
51305;HTU21D;37392;50.964;6.952;2022-07-10T01:46:15;12.46;92.95
51305;HTU21D;37392;50.964;6.952;2022-07-10T01:48:41;12.42;93.30
51305;HTU21D;37392;50.964;6.952;2022-07-10T01:51:08;12.37;93.85
51305;HTU21D;37392;50.964;6.952;2022-07-10T01:53:34;12.37;93.95
51305;HTU21D;37392;50.964;6.952;2022-07-10T01:56:01;12.35;94.13
51305;HTU21D;37392;50.964;6.952;2022-07-10T01:58:28;12.37;93.94
51305;HTU21D;37392;50.964;6.952;2022-07-10T02:00:54;12.44;93.91
51305;HTU21D;37392;50.964;6.952;2022-07-10T02:03:19;12.60;93.85
51305;HTU21D;37392;50.964;6.952;2022-07-10T02:06:03;12.79;93.09
51305;HTU21D;37392;50.964;6.952;2022-07-10T02:08:29;12.93;93.08
51305;HTU21D;37392;50.964;6.952;2022-07-10T02:10:55;13.07;92.50
51305;HTU21D;37392;50.964;6.952;2022-07-10T02:13:20;13.16;91.88
51305;HTU21D;37392;50.964;6.952;2022-07-10T02:15:46;13.25;91.69
51305;HTU21D;37392;50.964;6.952;2022-07-10T02:18:12;13.32;91.41
51305;HTU21D;37392;50.964;6.952;2022-07-10T02:20:38;13.39;91.02
51305;HTU21D;37392;50.964;6.952;2022-07-10T02:23:03;13.50;90.67
51305;HTU21D;37392;50.964;6.952;2022-07-10T02:25:29;13.53;90.39
51305;HTU21D;37392;50.964;6.952;2022-07-10T02:27:54;13.54;90.51
51305;HTU21D;37392;50.964;6.952;2022-07-10T02:30:20;13.48;90.21
51305;HTU21D;37392;50.964;6.952;2022-07-10T02:32:45;13.45;90.44
51305;HTU21D;37392;50.964;6.952;2022-07-10T02:35:11;13.44;90.82
51305;HTU21D;37392;50.964;6.952;2022-07-10T02:37:36;13.37;90.69
51305;HTU21D;37392;50.964;6.952;2022-07-10T02:40:02;13.32;90.53
51305;HTU21D;37392;50.964;6.952;2022-07-10T02:42:28;13.32;90.58
51305;HTU21D;37392;50.964;6.952;2022-07-10T02:44:53;13.29;90.92
51305;HTU21D;37392;50.964;6.952;2022-07-10T02:47:19;13.30;91.10
51305;HTU21D;37392;50.964;6.952;2022-07-10T02:49:44;13.23;91.17
51305;HTU21D;37392;50.964;6.952;2022-07-10T02:52:10;13.18;91.63
51305;HTU21D;37392;50.964;6.952;2022-07-10T02:54:35;13.10;91.81
51305;HTU21D;37392;50.964;6.952;2022-07-10T02:57:01;13.04;92.37
51305;HTU21D;37392;50.964;6.952;2022-07-10T02:59:27;13.05;92.71
51305;HTU21D;37392;50.964;6.952;2022-07-10T03:01:52;13.05;92.43
51305;HTU21D;37392;50.964;6.952;2022-07-10T03:04:18;13.09;92.40
51305;HTU21D;37392;50.964;6.952;2022-07-10T03:06:43;13.14;92.32
51305;HTU21D;37392;50.964;6.952;2022-07-10T03:09:08;13.20;92.47
51305;HTU21D;37392;50.964;6.952;2022-07-10T03:11:34;13.29;92.13
51305;HTU21D;37392;50.964;6.952;2022-07-10T03:13:59;13.34;91.63
51305;HTU21D;37392;50.964;6.952;2022-07-10T03:16:25;13.39;91.58
51305;HTU21D;37392;50.964;6.952;2022-07-10T03:18:50;13.45;91.80
51305;HTU21D;37392;50.964;6.952;2022-07-10T03:21:16;13.52;91.55
51305;HTU21D;37392;50.964;6.952;2022-07-10T03:23:41;13.61;91.14
51305;HTU21D;37392;50.964;6.952;2022-07-10T03:26:07;13.63;91.15
51305;HTU21D;37392;50.964;6.952;2022-07-10T03:28:33;13.64;91.05
51305;HTU21D;37392;50.964;6.952;2022-07-10T03:30:58;13.62;90.92
51305;HTU21D;37392;50.964;6.952;2022-07-10T03:33:24;13.64;91.11
51305;HTU21D;37392;50.964;6.952;2022-07-10T03:35:49;13.66;90.93
51305;HTU21D;37392;50.964;6.952;2022-07-10T03:38:15;13.70;90.60
51305;HTU21D;37392;50.964;6.952;2022-07-10T03:40:40;13.77;90.43
51305;HTU21D;37392;50.964;6.952;2022-07-10T03:43:06;13.82;90.40
51305;HTU21D;37392;50.964;6.952;2022-07-10T03:45:31;13.86;90.31
51305;HTU21D;37392;50.964;6.952;2022-07-10T03:47:57;13.89;89.67
51305;HTU21D;37392;50.964;6.952;2022-07-10T03:50:22;13.90;89.66
51305;HTU21D;37392;50.964;6.952;2022-07-10T03:52:48;13.99;89.70
51305;HTU21D;37392;50.964;6.952;2022-07-10T03:55:13;14.01;89.31
51305;HTU21D;37392;50.964;6.952;2022-07-10T03:57:39;14.06;89.10
51305;HTU21D;37392;50.964;6.952;2022-07-10T04:00:20;14.07;89.16
51305;HTU21D;37392;50.964;6.952;2022-07-10T04:02:59;14.09;88.75
51305;HTU21D;37392;50.964;6.952;2022-07-10T04:05:28;14.17;88.75
51305;HTU21D;37392;50.964;6.952;2022-07-10T04:07:54;14.26;88.32
51305;HTU21D;37392;50.964;6.952;2022-07-10T04:10:22;14.40;87.60
51305;HTU21D;37392;50.964;6.952;2022-07-10T04:12:48;14.49;87.22
51305;HTU21D;37392;50.964;6.952;2022-07-10T04:15:13;14.55;87.19
51305;HTU21D;37392;50.964;6.952;2022-07-10T04:17:39;14.78;86.86
51305;HTU21D;37392;50.964;6.952;2022-07-10T04:20:05;15.22;85.77
51305;HTU21D;37392;50.964;6.952;2022-07-10T04:22:31;15.72;83.83
51305;HTU21D;37392;50.964;6.952;2022-07-10T04:24:56;16.43;81.74
51305;HTU21D;37392;50.964;6.952;2022-07-10T04:27:22;17.37;78.75
51305;HTU21D;37392;50.964;6.952;2022-07-10T04:29:47;18.53;74.96
51305;HTU21D;37392;50.964;6.952;2022-07-10T04:32:13;19.52;71.12
51305;HTU21D;37392;50.964;6.952;2022-07-10T04:34:39;20.24;68.15
51305;HTU21D;37392;50.964;6.952;2022-07-10T04:37:05;20.80;66.11
51305;HTU21D;37392;50.964;6.952;2022-07-10T04:39:32;21.19;64.56
51305;HTU21D;37392;50.964;6.952;2022-07-10T04:41:59;21.60;62.91
51305;HTU21D;37392;50.964;6.952;2022-07-10T04:44:24;21.90;62.03
51305;HTU21D;37392;50.964;6.952;2022-07-10T04:46:50;22.31;60.68
51305;HTU21D;37392;50.964;6.952;2022-07-10T04:49:16;22.71;59.00
51305;HTU21D;37392;50.964;6.952;2022-07-10T04:51:41;22.96;58.26
51305;HTU21D;37392;50.964;6.952;2022-07-10T04:54:06;22.54;58.70
51305;HTU21D;37392;50.964;6.952;2022-07-10T04:56:32;21.89;60.39
51305;HTU21D;37392;50.964;6.952;2022-07-10T04:58:57;21.50;61.63
51305;HTU21D;37392;50.964;6.952;2022-07-10T05:01:23;21.46;62.02
51305;HTU21D;37392;50.964;6.952;2022-07-10T05:03:48;21.76;61.73
51305;HTU21D;37392;50.964;6.952;2022-07-10T05:06:14;22.53;59.64
51305;HTU21D;37392;50.964;6.952;2022-07-10T05:08:39;23.15;57.87
51305;HTU21D;37392;50.964;6.952;2022-07-10T05:11:05;24.19;55.50
51305;HTU21D;37392;50.964;6.952;2022-07-10T05:13:30;25.09;53.49
51305;HTU21D;37392;50.964;6.952;2022-07-10T05:15:56;25.13;52.48
51305;HTU21D;37392;50.964;6.952;2022-07-10T05:18:21;25.28;52.42
51305;HTU21D;37392;50.964;6.952;2022-07-10T05:20:47;25.75;51.07
51305;HTU21D;37392;50.964;6.952;2022-07-10T05:23:14;26.24;49.94
51305;HTU21D;37392;50.964;6.952;2022-07-10T05:25:40;26.38;49.44
51305;HTU21D;37392;50.964;6.952;2022-07-10T05:28:05;27.02;48.75
51305;HTU21D;37392;50.964;6.952;2022-07-10T05:30:31;27.07;47.91
51305;HTU21D;37392;50.964;6.952;2022-07-10T05:32:57;27.45;47.73
51305;HTU21D;37392;50.964;6.952;2022-07-10T05:35:22;27.71;46.88
51305;HTU21D;37392;50.964;6.952;2022-07-10T05:37:48;27.60;47.17
51305;HTU21D;37392;50.964;6.952;2022-07-10T05:40:13;27.67;46.31
51305;HTU21D;37392;50.964;6.952;2022-07-10T05:42:39;27.45;46.51
51305;HTU21D;37392;50.964;6.952;2022-07-10T05:45:05;28.31;45.48
51305;HTU21D;37392;50.964;6.952;2022-07-10T05:47:31;28.61;44.88
51305;HTU21D;37392;50.964;6.952;2022-07-10T05:49:58;28.45;45.02
51305;HTU21D;37392;50.964;6.952;2022-07-10T05:52:24;28.05;45.09
51305;HTU21D;37392;50.964;6.952;2022-07-10T05:54:50;28.16;44.87
51305;HTU21D;37392;50.964;6.952;2022-07-10T05:57:16;28.32;44.27
51305;HTU21D;37392;50.964;6.952;2022-07-10T05:59:42;28.50;43.79
51305;HTU21D;37392;50.964;6.952;2022-07-10T06:02:07;29.21;43.29
51305;HTU21D;37392;50.964;6.952;2022-07-10T06:04:33;29.32;42.48
51305;HTU21D;37392;50.964;6.952;2022-07-10T06:06:59;29.62;41.75
51305;HTU21D;37392;50.964;6.952;2022-07-10T06:09:24;29.17;42.17
51305;HTU21D;37392;50.964;6.952;2022-07-10T06:11:50;29.32;42.01
51305;HTU21D;37392;50.964;6.952;2022-07-10T06:14:15;28.97;42.00
51305;HTU21D;37392;50.964;6.952;2022-07-10T06:16:41;27.81;43.79
51305;HTU21D;37392;50.964;6.952;2022-07-10T06:19:06;26.68;45.96
51305;HTU21D;37392;50.964;6.952;2022-07-10T06:21:32;25.42;48.17
51305;HTU21D;37392;50.964;6.952;2022-07-10T06:23:57;24.47;49.79
51305;HTU21D;37392;50.964;6.952;2022-07-10T06:26:24;23.46;51.75
51305;HTU21D;37392;50.964;6.952;2022-07-10T06:28:49;22.84;53.62
51305;HTU21D;37392;50.964;6.952;2022-07-10T06:31:15;22.29;55.36
51305;HTU21D;37392;50.964;6.952;2022-07-10T06:33:40;22.33;55.87
51305;HTU21D;37392;50.964;6.952;2022-07-10T06:36:06;22.13;56.65
51305;HTU21D;37392;50.964;6.952;2022-07-10T06:38:32;22.61;56.40
51305;HTU21D;37392;50.964;6.952;2022-07-10T06:40:57;23.53;54.55
51305;HTU21D;37392;50.964;6.952;2022-07-10T06:43:23;24.66;51.67
51305;HTU21D;37392;50.964;6.952;2022-07-10T06:45:49;25.15;50.05
51305;HTU21D;37392;50.964;6.952;2022-07-10T06:48:14;25.72;48.87
51305;HTU21D;37392;50.964;6.952;2022-07-10T06:50:40;25.53;48.82
51305;HTU21D;37392;50.964;6.952;2022-07-10T06:53:06;25.52;49.20
51305;HTU21D;37392;50.964;6.952;2022-07-10T06:55:32;26.19;47.88
51305;HTU21D;37392;50.964;6.952;2022-07-10T06:57:57;25.99;47.81
51305;HTU21D;37392;50.964;6.952;2022-07-10T07:00:24;25.18;49.77
51305;HTU21D;37392;50.964;6.952;2022-07-10T07:02:49;24.51;51.66
51305;HTU21D;37392;50.964;6.952;2022-07-10T07:05:15;23.99;52.88
51305;HTU21D;37392;50.964;6.952;2022-07-10T07:07:41;23.65;54.13
51305;HTU21D;37392;50.964;6.952;2022-07-10T07:10:07;23.15;55.48
51305;HTU21D;37392;50.964;6.952;2022-07-10T07:12:33;22.76;56.42
51305;HTU21D;37392;50.964;6.952;2022-07-10T07:14:58;22.31;57.77
51305;HTU21D;37392;50.964;6.952;2022-07-10T07:17:24;22.26;58.05
51305;HTU21D;37392;50.964;6.952;2022-07-10T07:19:58;22.16;57.93
51305;HTU21D;37392;50.964;6.952;2022-07-10T07:22:42;21.99;58.04
51305;HTU21D;37392;50.964;6.952;2022-07-10T07:25:27;21.98;57.76
51305;HTU21D;37392;50.964;6.952;2022-07-10T07:27:52;21.67;58.01
51305;HTU21D;37392;50.964;6.952;2022-07-10T07:30:18;21.45;58.35
51305;HTU21D;37392;50.964;6.952;2022-07-10T07:32:44;21.39;58.60
51305;HTU21D;37392;50.964;6.952;2022-07-10T07:35:11;21.14;58.76
51305;HTU21D;37392;50.964;6.952;2022-07-10T07:37:40;20.88;59.07
51305;HTU21D;37392;50.964;6.952;2022-07-10T07:40:07;20.74;59.62
51305;HTU21D;37392;50.964;6.952;2022-07-10T07:42:34;20.65;59.95
51305;HTU21D;37392;50.964;6.952;2022-07-10T07:45:00;20.47;60.73
51305;HTU21D;37392;50.964;6.952;2022-07-10T07:47:25;20.28;62.06
51305;HTU21D;37392;50.964;6.952;2022-07-10T07:49:51;20.47;62.31
51305;HTU21D;37392;50.964;6.952;2022-07-10T07:52:16;20.88;62.06
51305;HTU21D;37392;50.964;6.952;2022-07-10T07:54:42;20.96;61.53
51305;HTU21D;37392;50.964;6.952;2022-07-10T07:57:07;21.31;60.81
51305;HTU21D;37392;50.964;6.952;2022-07-10T07:59:33;21.59;60.82
51305;HTU21D;37392;50.964;6.952;2022-07-10T08:01:59;21.90;61.21
51305;HTU21D;37392;50.964;6.952;2022-07-10T08:04:25;21.98;60.24
51305;HTU21D;37392;50.964;6.952;2022-07-10T08:06:50;21.93;59.96
51305;HTU21D;37392;50.964;6.952;2022-07-10T08:09:20;21.81;59.83
51305;HTU21D;37392;50.964;6.952;2022-07-10T08:11:46;21.76;60.04
51305;HTU21D;37392;50.964;6.952;2022-07-10T08:14:12;21.70;60.10
51305;HTU21D;37392;50.964;6.952;2022-07-10T08:16:39;21.65;59.83
51305;HTU21D;37392;50.964;6.952;2022-07-10T08:19:05;21.39;60.72
51305;HTU21D;37392;50.964;6.952;2022-07-10T08:21:31;21.23;61.34
51305;HTU21D;37392;50.964;6.952;2022-07-10T08:23:57;21.25;62.04
51305;HTU21D;37392;50.964;6.952;2022-07-10T08:26:23;21.37;62.19
51305;HTU21D;37392;50.964;6.952;2022-07-10T08:28:49;21.54;61.77
51305;HTU21D;37392;50.964;6.952;2022-07-10T08:31:14;21.82;61.13
51305;HTU21D;37392;50.964;6.952;2022-07-10T08:33:40;21.87;60.92
51305;HTU21D;37392;50.964;6.952;2022-07-10T08:36:06;21.90;60.54
51305;HTU21D;37392;50.964;6.952;2022-07-10T08:38:31;21.88;60.80
51305;HTU21D;37392;50.964;6.952;2022-07-10T08:40:57;21.73;60.91
51305;HTU21D;37392;50.964;6.952;2022-07-10T08:43:24;21.74;61.03
51305;HTU21D;37392;50.964;6.952;2022-07-10T08:45:52;21.90;60.65
51305;HTU21D;37392;50.964;6.952;2022-07-10T08:48:22;22.16;59.88
51305;HTU21D;37392;50.964;6.952;2022-07-10T08:50:51;22.19;59.61
51305;HTU21D;37392;50.964;6.952;2022-07-10T08:53:26;22.48;58.71
51305;HTU21D;37392;50.964;6.952;2022-07-10T08:55:56;22.22;58.76
51305;HTU21D;37392;50.964;6.952;2022-07-10T08:58:22;22.33;59.15
51305;HTU21D;37392;50.964;6.952;2022-07-10T09:00:48;22.27;58.96
51305;HTU21D;37392;50.964;6.952;2022-07-10T09:03:13;22.76;58.31
51305;HTU21D;37392;50.964;6.952;2022-07-10T09:05:39;22.66;58.19
51305;HTU21D;37392;50.964;6.952;2022-07-10T09:08:07;22.42;58.45
51305;HTU21D;37392;50.964;6.952;2022-07-10T09:10:46;22.77;58.28
51305;HTU21D;37392;50.964;6.952;2022-07-10T09:13:12;23.38;57.08
51305;HTU21D;37392;50.964;6.952;2022-07-10T09:15:37;23.75;55.68
51305;HTU21D;37392;50.964;6.952;2022-07-10T09:18:03;23.99;55.25
51305;HTU21D;37392;50.964;6.952;2022-07-10T09:20:33;23.98;55.04
51305;HTU21D;37392;50.964;6.952;2022-07-10T09:25:40;23.61;56.01
51305;HTU21D;37392;50.964;6.952;2022-07-10T09:28:06;23.29;56.68
51305;HTU21D;37392;50.964;6.952;2022-07-10T09:30:36;23.05;57.61
51305;HTU21D;37392;50.964;6.952;2022-07-10T09:33:16;22.81;58.16
51305;HTU21D;37392;50.964;6.952;2022-07-10T09:36:04;22.69;58.70
51305;HTU21D;37392;50.964;6.952;2022-07-10T09:41:11;22.72;58.68
51305;HTU21D;37392;50.964;6.952;2022-07-10T09:43:44;23.16;58.07
51305;HTU21D;37392;50.964;6.952;2022-07-10T09:46:14;23.41;57.48
51305;HTU21D;37392;50.964;6.952;2022-07-10T09:48:47;23.65;56.77
51305;HTU21D;37392;50.964;6.952;2022-07-10T09:51:13;23.84;56.23
51305;HTU21D;37392;50.964;6.952;2022-07-10T09:53:39;23.94;55.91
51305;HTU21D;37392;50.964;6.952;2022-07-10T09:56:09;23.91;55.63
51305;HTU21D;37392;50.964;6.952;2022-07-10T09:58:37;23.14;57.52
51305;HTU21D;37392;50.964;6.952;2022-07-10T10:01:03;22.72;58.99
51305;HTU21D;37392;50.964;6.952;2022-07-10T10:03:37;22.69;59.16
51305;HTU21D;37392;50.964;6.952;2022-07-10T10:06:14;22.55;59.88
51305;HTU21D;37392;50.964;6.952;2022-07-10T10:11:27;21.92;62.28
51305;HTU21D;37392;50.964;6.952;2022-07-10T10:13:54;21.67;63.09
51305;HTU21D;37392;50.964;6.952;2022-07-10T10:16:20;21.34;64.01
51305;HTU21D;37392;50.964;6.952;2022-07-10T10:18:46;21.21;64.77
51305;HTU21D;37392;50.964;6.952;2022-07-10T10:21:32;21.01;65.24
51305;HTU21D;37392;50.964;6.952;2022-07-10T10:23:58;20.81;65.95
51305;HTU21D;37392;50.964;6.952;2022-07-10T10:26:25;20.76;66.28
51305;HTU21D;37392;50.964;6.952;2022-07-10T10:28:51;20.80;66.36
51305;HTU21D;37392;50.964;6.952;2022-07-10T10:31:18;20.88;66.34
51305;HTU21D;37392;50.964;6.952;2022-07-10T10:33:45;20.96;66.35
51305;HTU21D;37392;50.964;6.952;2022-07-10T10:36:42;21.16;66.05
51305;HTU21D;37392;50.964;6.952;2022-07-10T10:39:01;21.34;65.63
51305;HTU21D;37392;50.964;6.952;2022-07-10T10:41:30;21.63;64.59
51305;HTU21D;37392;50.964;6.952;2022-07-10T10:49:18;22.35;62.44
51305;HTU21D;37392;50.964;6.952;2022-07-10T10:54:27;21.81;63.95
51305;HTU21D;37392;50.964;6.952;2022-07-10T11:07:58;22.20;62.97
51305;HTU21D;37392;50.964;6.952;2022-07-10T11:13:00;22.66;61.72
51305;HTU21D;37392;50.964;6.952;2022-07-10T11:15:27;22.37;62.02
51305;HTU21D;37392;50.964;6.952;2022-07-10T11:18:19;22.09;63.09
51305;HTU21D;37392;50.964;6.952;2022-07-10T11:20:56;21.91;64.02
51305;HTU21D;37392;50.964;6.952;2022-07-10T11:31:18;20.87;68.04
51305;HTU21D;37392;50.964;6.952;2022-07-10T11:33:48;20.72;68.69
51305;HTU21D;37392;50.964;6.952;2022-07-10T11:36:19;20.58;69.37
51305;HTU21D;37392;50.964;6.952;2022-07-10T11:39:02;20.28;70.87
51305;HTU21D;37392;50.964;6.952;2022-07-10T11:41:29;19.96;71.94
51305;HTU21D;37392;50.964;6.952;2022-07-10T11:44:02;19.82;74.60
51305;HTU21D;37392;50.964;6.952;2022-07-10T11:46:32;19.70;73.68
51305;HTU21D;37392;50.964;6.952;2022-07-10T11:49:01;19.69;73.45
51305;HTU21D;37392;50.964;6.952;2022-07-10T11:51:30;19.83;73.13
51305;HTU21D;37392;50.964;6.952;2022-07-10T11:54:01;20.12;72.19
51305;HTU21D;37392;50.964;6.952;2022-07-10T11:56:42;20.34;71.44
51305;HTU21D;37392;50.964;6.952;2022-07-10T11:59:12;20.56;71.03
51305;HTU21D;37392;50.964;6.952;2022-07-10T12:01:44;20.58;71.10
51305;HTU21D;37392;50.964;6.952;2022-07-10T12:04:12;20.42;71.77
51305;HTU21D;37392;50.964;6.952;2022-07-10T12:06:39;20.53;71.64
51305;HTU21D;37392;50.964;6.952;2022-07-10T12:09:06;20.69;71.18
51305;HTU21D;37392;50.964;6.952;2022-07-10T12:11:33;20.68;70.78
51305;HTU21D;37392;50.964;6.952;2022-07-10T12:16:36;20.86;70.43
51305;HTU21D;37392;50.964;6.952;2022-07-10T12:19:03;20.76;70.47
51305;HTU21D;37392;50.964;6.952;2022-07-10T12:21:29;20.68;71.08
51305;HTU21D;37392;50.964;6.952;2022-07-10T12:24:01;20.59;71.17
51305;HTU21D;37392;50.964;6.952;2022-07-10T12:26:34;20.53;71.19
51305;HTU21D;37392;50.964;6.952;2022-07-10T12:29:01;20.34;71.68
51305;HTU21D;37392;50.964;6.952;2022-07-10T12:31:28;20.19;71.97
51305;HTU21D;37392;50.964;6.952;2022-07-10T12:33:58;20.07;72.46
51305;HTU21D;37392;50.964;6.952;2022-07-10T12:36:40;20.11;72.44
51305;HTU21D;37392;50.964;6.952;2022-07-10T12:39:13;19.94;73.39
51305;HTU21D;37392;50.964;6.952;2022-07-10T12:41:53;20.05;73.25
51305;HTU21D;37392;50.964;6.952;2022-07-10T12:44:30;20.53;71.86
51305;HTU21D;37392;50.964;6.952;2022-07-10T12:52:22;21.50;69.05
51305;HTU21D;37392;50.964;6.952;2022-07-10T12:57:51;22.01;67.25
51305;HTU21D;37392;50.964;6.952;2022-07-10T13:00:22;22.18;66.49
51305;HTU21D;37392;50.964;6.952;2022-07-10T13:03:03;22.05;66.84
51305;HTU21D;37392;50.964;6.952;2022-07-10T13:05:33;21.95;67.35
51305;HTU21D;37392;50.964;6.952;2022-07-10T13:10:38;21.51;68.37
51305;HTU21D;37392;50.964;6.952;2022-07-10T13:13:04;21.53;68.65
51305;HTU21D;37392;50.964;6.952;2022-07-10T13:15:30;21.52;70.68
51305;HTU21D;37392;50.964;6.952;2022-07-10T13:17:56;21.58;69.42
51305;HTU21D;37392;50.964;6.952;2022-07-10T13:20:22;21.73;68.65
51305;HTU21D;37392;50.964;6.952;2022-07-10T13:22:48;21.76;68.49
51305;HTU21D;37392;50.964;6.952;2022-07-10T13:25:14;21.68;68.59
51305;HTU21D;37392;50.964;6.952;2022-07-10T13:27:40;21.55;69.02
51305;HTU21D;37392;50.964;6.952;2022-07-10T13:30:07;21.50;69.54
51305;HTU21D;37392;50.964;6.952;2022-07-10T13:32:34;21.46;70.07
51305;HTU21D;37392;50.964;6.952;2022-07-10T13:35:00;21.64;69.52
51305;HTU21D;37392;50.964;6.952;2022-07-10T13:37:25;21.73;68.90
51305;HTU21D;37392;50.964;6.952;2022-07-10T13:39:51;21.75;69.01
51305;HTU21D;37392;50.964;6.952;2022-07-10T13:42:16;21.91;68.47
51305;HTU21D;37392;50.964;6.952;2022-07-10T13:44:42;21.74;68.43
51305;HTU21D;37392;50.964;6.952;2022-07-10T13:47:08;21.76;68.58
51305;HTU21D;37392;50.964;6.952;2022-07-10T13:49:33;22.05;67.95
51305;HTU21D;37392;50.964;6.952;2022-07-10T13:51:59;22.33;67.28
51305;HTU21D;37392;50.964;6.952;2022-07-10T13:54:24;22.33;66.81
51305;HTU21D;37392;50.964;6.952;2022-07-10T13:56:50;22.52;66.70
51305;HTU21D;37392;50.964;6.952;2022-07-10T13:59:16;22.72;65.72
51305;HTU21D;37392;50.964;6.952;2022-07-10T14:01:41;23.21;64.55
51305;HTU21D;37392;50.964;6.952;2022-07-10T14:04:07;23.67;62.76
51305;HTU21D;37392;50.964;6.952;2022-07-10T14:06:33;23.79;61.78
51305;HTU21D;37392;50.964;6.952;2022-07-10T14:08:59;24.00;61.54
51305;HTU21D;37392;50.964;6.952;2022-07-10T14:11:24;24.39;60.29
51305;HTU21D;37392;50.964;6.952;2022-07-10T14:13:50;24.38;59.90
51305;HTU21D;37392;50.964;6.952;2022-07-10T14:16:15;24.34;60.21
51305;HTU21D;37392;50.964;6.952;2022-07-10T14:18:41;24.19;60.36
51305;HTU21D;37392;50.964;6.952;2022-07-10T14:21:09;23.95;60.83
51305;HTU21D;37392;50.964;6.952;2022-07-10T14:23:37;23.77;61.46
51305;HTU21D;37392;50.964;6.952;2022-07-10T14:26:04;23.95;61.28
51305;HTU21D;37392;50.964;6.952;2022-07-10T14:28:30;24.35;60.37
51305;HTU21D;37392;50.964;6.952;2022-07-10T14:30:57;24.45;59.54
51305;HTU21D;37392;50.964;6.952;2022-07-10T14:33:25;24.53;59.44
51305;HTU21D;37392;50.964;6.952;2022-07-10T14:35:51;24.64;59.17
51305;HTU21D;37392;50.964;6.952;2022-07-10T14:38:16;24.65;58.54
51305;HTU21D;37392;50.964;6.952;2022-07-10T14:40:42;24.47;58.80
51305;HTU21D;37392;50.964;6.952;2022-07-10T14:43:08;24.20;59.44
51305;HTU21D;37392;50.964;6.952;2022-07-10T14:45:33;23.82;60.33
51305;HTU21D;37392;50.964;6.952;2022-07-10T14:47:59;23.71;60.87
51305;HTU21D;37392;50.964;6.952;2022-07-10T14:50:25;23.52;61.21
51305;HTU21D;37392;50.964;6.952;2022-07-10T14:52:51;23.14;62.05
51305;HTU21D;37392;50.964;6.952;2022-07-10T14:55:17;22.85;63.02
51305;HTU21D;37392;50.964;6.952;2022-07-10T14:57:43;22.72;63.58
51305;HTU21D;37392;50.964;6.952;2022-07-10T15:00:08;22.65;63.87
51305;HTU21D;37392;50.964;6.952;2022-07-10T15:02:34;22.49;64.11
51305;HTU21D;37392;50.964;6.952;2022-07-10T15:05:00;22.46;64.47
51305;HTU21D;37392;50.964;6.952;2022-07-10T15:07:27;22.42;64.65
51305;HTU21D;37392;50.964;6.952;2022-07-10T15:09:53;22.50;64.32
51305;HTU21D;37392;50.964;6.952;2022-07-10T15:12:19;22.49;64.16
51305;HTU21D;37392;50.964;6.952;2022-07-10T15:15:34;22.46;64.35
51305;HTU21D;37392;50.964;6.952;2022-07-10T15:18:24;22.35;64.70
51305;HTU21D;37392;50.964;6.952;2022-07-10T15:21:15;22.31;64.97
51305;HTU21D;37392;50.964;6.952;2022-07-10T15:24:09;22.16;65.53
51305;HTU21D;37392;50.964;6.952;2022-07-10T15:27:09;21.96;65.75
51305;HTU21D;37392;50.964;6.952;2022-07-10T15:30:04;21.68;66.98
51305;HTU21D;37392;50.964;6.952;2022-07-10T15:33:18;21.43;68.03
51305;HTU21D;37392;50.964;6.952;2022-07-10T15:36:12;21.31;69.68
51305;HTU21D;37392;50.964;6.952;2022-07-10T15:39:04;21.23;69.18
51305;HTU21D;37392;50.964;6.952;2022-07-10T15:45:39;21.64;67.93
51305;HTU21D;37392;50.964;6.952;2022-07-10T15:48:11;21.80;67.43
51305;HTU21D;37392;50.964;6.952;2022-07-10T15:51:02;21.82;67.25
51305;HTU21D;37392;50.964;6.952;2022-07-10T15:53:57;21.76;67.54
51305;HTU21D;37392;50.964;6.952;2022-07-10T15:57:11;21.67;68.01
51305;HTU21D;37392;50.964;6.952;2022-07-10T15:59:40;21.62;68.13
51305;HTU21D;37392;50.964;6.952;2022-07-10T16:02:06;21.66;68.13
51305;HTU21D;37392;50.964;6.952;2022-07-10T16:04:32;21.60;68.08
51305;HTU21D;37392;50.964;6.952;2022-07-10T16:06:57;21.53;68.31
51305;HTU21D;37392;50.964;6.952;2022-07-10T16:09:23;21.43;69.09
51305;HTU21D;37392;50.964;6.952;2022-07-10T16:11:49;21.22;69.74
51305;HTU21D;37392;50.964;6.952;2022-07-10T16:14:15;21.11;69.94
51305;HTU21D;37392;50.964;6.952;2022-07-10T16:16:42;21.06;70.13
51305;HTU21D;37392;50.964;6.952;2022-07-10T16:19:08;21.03;70.13
51305;HTU21D;37392;50.964;6.952;2022-07-10T16:21:34;21.05;70.03
51305;HTU21D;37392;50.964;6.952;2022-07-10T16:24:00;21.06;70.00
51305;HTU21D;37392;50.964;6.952;2022-07-10T16:26:26;21.08;69.65
51305;HTU21D;37392;50.964;6.952;2022-07-10T16:28:52;21.05;69.69